createdAt,value
2022-09-23T00:01:36.065Z,81.02
2022-09-23T00:04:43.224Z,80.93
2022-09-23T00:08:01.944Z,81.19
2022-09-23T00:11:08.520Z,81.29
2022-09-23T00:14:15.090Z,80.90
2022-09-23T00:17:27.474Z,80.73
2022-09-23T00:20:36.656Z,81.28
2022-09-23T00:23:49.197Z,80.85
2022-09-23T00:27:00.027Z,80.68
2022-09-23T00:30:07.873Z,81.13
2022-09-23T00:33:12.878Z,80.85
2022-09-23T00:36:20.908Z,81.10
2022-09-23T00:39:40.482Z,81.44
2022-09-23T00:42:50.094Z,81.49
2022-09-23T00:45:57.810Z,81.74
2022-09-23T00:49:17.023Z,81.33
2022-09-23T00:52:29.801Z,81.74
2022-09-23T00:55:49.292Z,81.82
2022-09-23T01:12:39.037Z,81.01
2022-09-23T01:15:59.631Z,81.43
2022-09-23T01:19:29.910Z,81.47
2022-09-23T01:22:50.202Z,81.13
2022-09-23T01:26:14.629Z,81.33
2022-09-23T01:29:50.554Z,80.95
2022-09-23T01:33:05.587Z,81.49
2022-09-23T01:36:18.926Z,81.52
2022-09-23T01:39:29.642Z,81.07
2022-09-23T01:42:39.379Z,81.27
2022-09-23T01:45:46.837Z,81.15
2022-09-23T01:48:56.622Z,81.11
2022-09-23T01:52:05.769Z,80.73
2022-09-23T01:55:13.710Z,81.08
2022-09-23T01:58:22.626Z,81.17
2022-09-23T02:01:30.668Z,81.29
2022-09-23T02:04:41.186Z,81.57
2022-09-23T02:07:49.663Z,81.48
2022-09-23T02:10:56.473Z,81.32
2022-09-23T02:14:02.548Z,81.43
2022-09-23T02:17:10.835Z,81.63
2022-09-23T02:20:20.583Z,81.84
2022-09-23T02:23:28.527Z,81.45
2022-09-23T02:26:36.281Z,81.53
2022-09-23T02:29:49.478Z,81.11
2022-09-23T02:32:59.169Z,81.58
2022-09-23T02:36:09.942Z,81.13
2022-09-23T02:39:14.879Z,81.50
2022-09-23T02:42:22.642Z,81.55
2022-09-23T02:45:25.469Z,81.41
2022-09-23T02:48:33.576Z,81.24
2022-09-23T02:51:38.337Z,81.50
2022-09-23T02:54:42.071Z,82.11
2022-09-23T02:57:45.766Z,82.27
2022-09-23T03:00:59.433Z,82.55
2022-09-23T03:04:14.774Z,82.79
2022-09-23T03:07:23.133Z,82.79
2022-09-23T03:10:30.370Z,82.96
2022-09-23T03:13:43.755Z,83.50
2022-09-23T03:16:51.755Z,83.64
2022-09-23T03:19:59.375Z,83.57
2022-09-23T03:23:08.422Z,83.65
2022-09-23T03:26:14.896Z,83.80
2022-09-23T03:29:19.850Z,83.82
2022-09-23T03:32:26.722Z,83.70
2022-09-23T03:35:54.649Z,83.80
2022-09-23T03:39:03.793Z,83.38
2022-09-23T03:42:16.931Z,83.68
2022-09-23T03:45:26.063Z,83.65
2022-09-23T03:48:30.995Z,84.01
2022-09-23T03:51:33.615Z,83.79
2022-09-23T03:54:37.615Z,84.06
2022-09-23T03:57:40.503Z,83.85
2022-09-23T04:00:44.289Z,83.88
2022-09-23T04:03:46.930Z,84.13
2022-09-23T04:06:49.658Z,83.81
2022-09-23T04:09:54.288Z,83.79
2022-09-23T04:12:56.891Z,83.73
2022-09-23T04:15:59.708Z,83.56
2022-09-23T04:19:02.482Z,83.85
2022-09-23T04:22:05.733Z,83.96
2022-09-23T04:25:10.630Z,83.99
2022-09-23T04:28:13.390Z,84.10
2022-09-23T04:31:16.125Z,84.08
2022-09-23T04:34:19.337Z,84.04
2022-09-23T04:37:21.968Z,84.42
2022-09-23T04:40:26.448Z,84.40
2022-09-23T04:43:29.188Z,84.46
2022-09-23T04:46:32.088Z,84.35
2022-09-23T04:49:34.758Z,84.54
2022-09-23T04:52:37.486Z,84.10
2022-09-23T04:55:42.445Z,84.16
2022-09-23T04:58:45.993Z,84.37
2022-09-23T05:01:49.107Z,84.00
2022-09-23T05:04:52.145Z,84.06
2022-09-23T05:07:55.897Z,84.04
2022-09-23T05:11:00.850Z,83.00
2022-09-23T05:14:03.703Z,83.60
2022-09-23T05:17:06.384Z,84.09
2022-09-23T05:20:10.368Z,84.21
2022-09-23T05:23:12.970Z,84.34
2022-09-23T05:26:17.229Z,84.57
2022-09-23T05:29:19.857Z,84.50
2022-09-23T05:32:22.855Z,84.66
2022-09-23T05:35:25.570Z,84.76
2022-09-23T05:38:29.312Z,85.00
2022-09-23T05:41:33.829Z,84.95
2022-09-23T05:44:36.470Z,85.06
2022-09-23T05:47:39.267Z,84.94
2022-09-23T05:50:50.991Z,85.15
2022-09-23T05:53:54.975Z,84.98
2022-09-23T05:57:01.426Z,85.21
2022-09-23T06:00:08.304Z,84.85
2022-09-23T06:03:15.907Z,84.78
2022-09-23T06:06:21.607Z,84.11
2022-09-23T06:09:24.261Z,84.36
2022-09-23T06:12:28.285Z,83.69
2022-09-23T06:15:30.918Z,83.36
2022-09-23T06:18:33.627Z,82.57
2022-09-23T06:21:38.136Z,82.41
2022-09-23T06:24:40.743Z,81.32
2022-09-23T06:27:45.570Z,80.79
2022-09-23T06:31:12.893Z,79.90
2022-09-23T06:34:45.641Z,78.46
2022-09-23T06:37:51.924Z,77.43
2022-09-23T06:40:55.898Z,76.62
2022-09-23T06:43:59.853Z,76.73
2022-09-23T06:47:02.637Z,74.34
2022-09-23T06:50:05.774Z,74.03
2022-09-23T06:53:08.410Z,70.05
2022-09-23T06:56:12.146Z,66.74
2022-09-23T06:59:16.951Z,63.78
2022-09-23T07:02:19.701Z,59.25
2022-09-23T07:05:22.561Z,56.44
2022-09-23T07:08:27.041Z,55.65
2022-09-23T07:11:29.752Z,53.81
2022-09-23T07:14:33.682Z,53.51
2022-09-23T07:17:36.617Z,56.29
2022-09-23T07:20:39.346Z,58.38
2022-09-23T07:23:42.479Z,60.76
2022-09-23T07:26:45.842Z,62.14
2022-09-23T07:29:50.358Z,62.35
2022-09-23T07:32:53.152Z,64.11
2022-09-23T07:35:55.845Z,64.28
2022-09-23T07:39:02.810Z,63.57
2022-09-23T07:42:06.155Z,64.55
2022-09-23T07:45:10.684Z,66.41
2022-09-23T07:48:13.519Z,65.09
2022-09-23T07:51:20.096Z,65.96
2022-09-23T07:54:25.433Z,65.51
2022-09-23T07:57:28.049Z,66.21
2022-09-23T08:00:32.694Z,65.79
2022-09-23T08:03:36.433Z,66.14
2022-09-23T08:06:42.304Z,65.47
2022-09-23T08:09:48.439Z,66.24
2022-09-23T08:12:51.074Z,65.83
2022-09-23T08:15:55.732Z,65.11
2022-09-23T08:18:58.488Z,65.30
2022-09-23T08:22:01.823Z,65.37
2022-09-23T08:25:08.120Z,66.05
2022-09-23T08:28:16.051Z,66.68
2022-09-23T08:31:20.109Z,64.93
2022-09-23T08:34:24.525Z,65.32
2022-09-23T08:37:27.576Z,63.99
2022-09-23T08:40:30.712Z,64.58
2022-09-23T08:43:37.014Z,64.97
2022-09-23T08:46:46.557Z,65.14
2022-09-23T08:50:01.789Z,64.26
2022-09-23T08:53:09.457Z,63.75
2022-09-23T08:56:16.034Z,64.40
2022-09-23T08:59:22.201Z,63.63
2022-09-23T09:02:26.303Z,62.10
2022-09-23T09:05:30.285Z,61.74
2022-09-23T09:08:38.647Z,62.37
2022-09-23T09:11:48.683Z,60.53
2022-09-23T09:14:58.970Z,60.27
2022-09-23T09:18:07.554Z,60.06
2022-09-23T09:21:14.064Z,60.46
2022-09-23T09:24:25.698Z,60.16
2022-09-23T09:27:28.353Z,60.46
2022-09-23T09:30:32.381Z,58.28
2022-09-23T09:33:45.392Z,59.85
2022-09-23T09:36:55.370Z,57.35
2022-09-23T09:39:58.093Z,55.42
2022-09-23T09:43:01.905Z,56.06
2022-09-23T09:46:17.448Z,55.37
2022-09-23T09:49:30.633Z,55.26
2022-09-23T09:52:33.440Z,55.14
2022-09-23T09:55:37.309Z,55.07
2022-09-23T09:58:47.561Z,54.03
2022-09-23T10:01:50.941Z,53.11
2022-09-23T10:05:01.772Z,52.84
2022-09-23T10:08:24.584Z,52.35
2022-09-23T10:11:27.190Z,52.97
2022-09-23T10:14:30.147Z,53.00
2022-09-23T10:17:35.313Z,52.59
2022-09-23T10:20:39.422Z,54.15
2022-09-23T10:23:45.274Z,51.31
2022-09-23T10:26:55.697Z,52.16
2022-09-23T10:30:00.981Z,51.05
2022-09-23T10:33:03.677Z,51.43
2022-09-23T10:36:10.550Z,50.44
2022-09-23T10:39:30.662Z,50.04
2022-09-23T10:43:04.853Z,50.31
2022-09-23T10:46:27.320Z,49.60
2022-09-23T10:49:47.556Z,48.72
2022-09-23T10:53:03.423Z,48.80
2022-09-23T10:56:17.459Z,48.74
2022-09-23T10:59:40.253Z,48.73
2022-09-23T11:03:09.410Z,49.83
2022-09-23T11:06:21.325Z,47.99
2022-09-23T11:09:34.444Z,48.14
2022-09-23T11:12:50.468Z,48.08
2022-09-23T11:16:03.858Z,47.84
2022-09-23T11:19:23.161Z,47.27
2022-09-23T11:22:41.812Z,46.34
2022-09-23T11:25:51.706Z,46.67
2022-09-23T11:29:18.711Z,46.45
2022-09-23T11:32:39.579Z,48.64
2022-09-23T11:35:49.091Z,46.38
2022-09-23T11:38:55.873Z,47.76
2022-09-23T11:42:02.642Z,47.92
2022-09-23T11:45:14.019Z,48.38
2022-09-23T11:48:21.326Z,47.71
2022-09-23T11:51:29.781Z,46.39
2022-09-23T11:54:40.635Z,45.96
2022-09-23T11:57:49.702Z,46.95
2022-09-23T12:01:01.285Z,46.96
2022-09-23T12:04:19.330Z,47.42
2022-09-23T12:07:28.602Z,45.52
2022-09-23T12:10:42.126Z,46.28
2022-09-23T12:13:53.816Z,47.44
2022-09-23T12:17:14.831Z,46.42
2022-09-23T12:20:34.233Z,45.46
2022-09-23T12:23:55.612Z,45.95
2022-09-23T12:27:02.278Z,44.83
2022-09-23T12:30:15.093Z,45.89
2022-09-23T12:33:24.655Z,45.13
2022-09-23T12:36:30.470Z,45.79
2022-09-23T12:39:37.176Z,44.75
2022-09-23T12:42:45.991Z,44.45
2022-09-23T12:45:50.837Z,44.62
2022-09-23T12:49:01.947Z,44.53
2022-09-23T12:52:25.827Z,43.98
2022-09-23T12:55:51.499Z,46.33
2022-09-23T12:59:13.921Z,44.31
2022-09-23T13:02:27.960Z,45.09
2022-09-23T13:05:48.498Z,46.04
2022-09-23T13:08:51.246Z,46.14
2022-09-23T13:11:57.581Z,45.46
2022-09-23T13:15:05.715Z,44.95
2022-09-23T13:18:58.919Z,45.94
2022-09-23T13:22:13.335Z,45.58
2022-09-23T13:25:20.869Z,45.52
2022-09-23T13:28:32.245Z,46.18
2022-09-23T13:31:35.658Z,45.39
2022-09-23T13:34:41.440Z,46.43
2022-09-23T13:37:46.130Z,46.85
2022-09-23T13:40:49.288Z,46.89
2022-09-23T13:43:55.440Z,47.63
2022-09-23T13:47:00.439Z,48.28
2022-09-23T13:50:04.902Z,48.57
2022-09-23T13:53:10.661Z,46.91
2022-09-23T13:56:15.134Z,44.51
2022-09-23T13:59:26.536Z,42.21
2022-09-23T14:02:29.440Z,41.01
2022-09-23T14:05:36.272Z,40.92
2022-09-23T14:08:40.621Z,37.99
2022-09-23T14:11:44.694Z,37.10
2022-09-23T14:14:47.571Z,37.68
2022-09-23T14:17:54.637Z,37.59
2022-09-23T14:20:58.642Z,37.09
2022-09-23T14:24:14.261Z,38.16
2022-09-23T14:27:21.000Z,40.29
2022-09-23T14:30:23.737Z,40.69
2022-09-23T14:33:28.958Z,42.60
2022-09-23T14:36:54.251Z,41.66
2022-09-23T14:39:57.884Z,43.81
2022-09-23T14:43:05.536Z,45.45
2022-09-23T14:46:18.914Z,46.69
2022-09-23T14:49:21.710Z,48.08
2022-09-23T14:52:25.726Z,48.66
2022-09-23T14:55:29.974Z,49.61
2022-09-23T14:58:45.998Z,49.84
2022-09-23T15:01:50.842Z,50.77
2022-09-23T15:04:55.168Z,50.70
2022-09-23T15:08:03.809Z,53.11
2022-09-23T15:11:08.308Z,54.25
2022-09-23T15:14:33.510Z,52.05
2022-09-23T15:17:37.479Z,52.27
2022-09-23T15:20:40.556Z,52.63
2022-09-23T15:23:48.872Z,53.87
2022-09-23T15:26:52.831Z,53.81
2022-09-23T15:29:56.227Z,54.87
2022-09-23T15:32:59.769Z,56.00
2022-09-23T15:36:03.543Z,54.33
2022-09-23T15:39:32.027Z,55.03
2022-09-23T15:42:38.919Z,55.80
2022-09-23T15:45:46.211Z,56.71
2022-09-23T15:48:58.992Z,55.89
2022-09-23T15:52:03.571Z,55.98
2022-09-23T15:55:17.502Z,58.38
2022-09-23T15:58:20.341Z,56.95
2022-09-23T16:01:28.774Z,58.22
2022-09-23T16:04:31.672Z,60.23
2022-09-23T16:07:36.260Z,60.03
2022-09-23T16:10:40.495Z,59.43
2022-09-23T16:13:43.563Z,60.82
2022-09-23T16:16:47.874Z,59.57
2022-09-23T16:19:50.762Z,60.38
2022-09-23T16:22:57.114Z,60.95
2022-09-23T16:26:05.751Z,63.66
2022-09-23T16:29:10.513Z,66.22
2022-09-23T16:32:13.142Z,66.89
2022-09-23T16:35:16.087Z,66.97
2022-09-23T16:38:18.715Z,67.85
2022-09-23T16:41:23.289Z,69.85
2022-09-23T16:44:25.983Z,70.72
2022-09-23T16:47:28.809Z,71.14
2022-09-23T16:50:31.938Z,71.73
2022-09-23T16:53:36.247Z,71.54
2022-09-23T16:56:44.192Z,72.22
2022-09-23T17:00:04.169Z,72.77
2022-09-23T17:03:24.282Z,72.94
2022-09-23T17:06:28.948Z,73.36
2022-09-23T17:09:33.044Z,73.51
2022-09-23T17:12:37.382Z,73.26
2022-09-23T17:15:40.915Z,73.53
2022-09-23T17:18:43.836Z,74.13
2022-09-23T17:21:46.453Z,73.91
2022-09-23T17:24:49.103Z,74.16
2022-09-23T17:27:56.655Z,74.11
2022-09-23T17:31:00.735Z,74.13
2022-09-23T17:34:03.433Z,74.55
2022-09-23T17:37:06.258Z,74.96
2022-09-23T17:40:09.893Z,75.26
2022-09-23T17:43:25.679Z,75.76
2022-09-23T17:46:28.778Z,75.55
2022-09-23T17:49:35.399Z,75.56
2022-09-23T17:52:38.020Z,75.82
2022-09-23T17:55:40.954Z,75.97
2022-09-23T17:58:46.201Z,76.53
2022-09-23T18:01:48.898Z,76.62
2022-09-23T18:04:51.668Z,76.72
2022-09-23T18:07:54.371Z,77.06
2022-09-23T18:10:57.020Z,77.13
2022-09-23T18:14:03.399Z,77.01
2022-09-23T18:17:06.070Z,77.29
2022-09-23T18:20:10.013Z,77.99
2022-09-23T18:23:12.633Z,78.33
2022-09-23T18:26:15.961Z,78.42
2022-09-23T18:29:19.948Z,78.61
2022-09-23T18:32:22.582Z,78.38
2022-09-23T18:35:26.258Z,78.56
2022-09-23T18:38:31.306Z,78.46
2022-09-23T18:41:34.678Z,78.96
2022-09-23T18:44:38.664Z,79.06
2022-09-23T18:47:58.970Z,79.11
2022-09-23T18:51:01.662Z,79.11
2022-09-23T18:54:06.549Z,79.55
2022-09-23T18:57:09.239Z,79.76
2022-09-23T19:00:13.981Z,79.69
2022-09-23T19:03:17.653Z,79.90
2022-09-23T19:06:21.304Z,79.89
2022-09-23T19:09:24.457Z,80.34
2022-09-23T19:12:27.062Z,80.68
2022-09-23T19:15:31.279Z,80.71
2022-09-23T19:18:35.554Z,80.44
2022-09-23T19:21:38.230Z,80.63
2022-09-23T19:24:40.869Z,81.00
2022-09-23T19:27:43.551Z,80.75
2022-09-23T19:31:01.601Z,81.40
2022-09-23T19:34:10.228Z,81.34
2022-09-23T19:37:13.274Z,81.28
2022-09-23T19:40:16.224Z,81.46
2022-09-23T19:43:21.100Z,81.61
2022-09-23T19:46:25.049Z,81.19
2022-09-23T19:49:27.821Z,81.30
2022-09-23T19:52:30.465Z,81.57
2022-09-23T19:55:33.954Z,81.56
2022-09-23T19:58:37.613Z,82.01
2022-09-23T20:02:16.361Z,81.76
2022-09-23T20:05:20.541Z,81.57
2022-09-23T20:08:23.700Z,81.76
2022-09-23T20:11:28.669Z,82.00
2022-09-23T20:14:34.669Z,82.36
2022-09-23T20:17:39.994Z,82.02
2022-09-23T20:20:43.094Z,82.38
2022-09-23T20:23:48.762Z,82.81
2022-09-23T20:27:09.722Z,83.09
2022-09-23T20:30:12.726Z,83.06
2022-09-23T20:33:16.773Z,83.55
2022-09-23T20:36:19.414Z,83.60
2022-09-23T20:39:22.207Z,83.56
2022-09-23T20:42:24.805Z,84.13
2022-09-23T20:45:27.496Z,84.53
2022-09-23T20:48:32.018Z,84.66
2022-09-23T20:51:34.921Z,84.87
2022-09-23T20:54:38.866Z,85.03
2022-09-23T20:57:41.810Z,85.02
2022-09-23T21:00:45.408Z,85.37
2022-09-23T21:03:52.256Z,85.41
2022-09-23T21:06:55.898Z,85.04
2022-09-23T21:09:58.778Z,84.77
2022-09-23T21:13:02.081Z,84.86
2022-09-23T21:16:05.902Z,84.47
2022-09-23T21:19:09.913Z,84.95
2022-09-23T21:22:12.882Z,84.56
2022-09-23T21:25:27.468Z,84.93
2022-09-23T21:28:31.965Z,85.28
2022-09-23T21:31:36.815Z,85.14
2022-09-23T21:34:40.890Z,85.59
2022-09-23T21:37:43.516Z,85.09
2022-09-23T21:40:58.057Z,85.20
2022-09-23T21:44:04.518Z,85.75
2022-09-23T21:47:07.341Z,85.81
2022-09-23T21:50:11.922Z,85.66
2022-09-23T21:53:14.751Z,85.56
2022-09-23T21:56:21.813Z,86.21
2022-09-23T21:59:24.466Z,85.98
2022-09-23T22:02:27.459Z,86.21
2022-09-23T22:05:32.054Z,85.89
2022-09-23T22:08:37.037Z,85.55
2022-09-23T22:11:58.089Z,85.56
2022-09-23T22:15:00.740Z,86.09
2022-09-23T22:18:05.164Z,86.05
2022-09-23T22:21:09.984Z,86.37
2022-09-23T22:24:13.966Z,87.01
2022-09-23T22:27:19.522Z,87.06
2022-09-23T22:30:39.866Z,87.14
2022-09-23T22:33:42.483Z,87.31
2022-09-23T22:36:46.480Z,87.44
2022-09-23T22:39:49.130Z,87.20
2022-09-23T22:42:52.571Z,86.88
2022-09-23T22:45:55.204Z,87.33
2022-09-23T22:48:58.334Z,86.91
2022-09-23T22:52:07.725Z,86.86
2022-09-23T22:55:10.848Z,87.21
2022-09-23T22:58:31.317Z,87.77
2022-09-23T23:01:36.590Z,87.84
2022-09-23T23:04:39.284Z,87.75
2022-09-23T23:07:43.229Z,87.71
2022-09-23T23:10:45.954Z,87.55
2022-09-23T23:13:48.837Z,87.68
2022-09-23T23:16:51.625Z,88.13
2022-09-23T23:19:54.443Z,88.33
2022-09-23T23:23:00.894Z,88.67
2022-09-23T23:26:09.816Z,88.17
2022-09-23T23:29:14.122Z,88.33
2022-09-23T23:32:17.176Z,88.25
2022-09-23T23:35:19.764Z,88.31
2022-09-23T23:38:23.921Z,88.28
2022-09-23T23:41:26.747Z,88.36
2022-09-23T23:44:30.524Z,88.86
2022-09-23T23:47:33.182Z,88.47
2022-09-23T23:50:36.026Z,88.56
2022-09-23T23:53:41.171Z,88.66
2022-09-23T23:56:43.850Z,88.87
2022-09-23T23:59:47.108Z,88.52
